sensor_id;sensor_type;location;lat;lon;timestamp;P1;durP1;ratioP1;P2;durP2;ratioP2
26774;SDS011;14362;51.902;7.626;2023-12-29T00:03:01;7.28;;;2.22;;
26774;SDS011;14362;51.902;7.626;2023-12-29T00:07:03;6.35;;;1.92;;
26774;SDS011;14362;51.902;7.626;2023-12-29T00:11:04;8.27;;;1.92;;
26774;SDS011;14362;51.902;7.626;2023-12-29T00:15:06;8.98;;;2.38;;
26774;SDS011;14362;51.902;7.626;2023-12-29T00:19:09;7.65;;;1.63;;
26774;SDS011;14362;51.902;7.626;2023-12-29T00:23:11;10.05;;;2.20;;
26774;SDS011;14362;51.902;7.626;2023-12-29T00:27:13;8.27;;;2.33;;
26774;SDS011;14362;51.902;7.626;2023-12-29T00:31:14;9.90;;;1.85;;
26774;SDS011;14362;51.902;7.626;2023-12-29T00:35:17;10.02;;;2.58;;
26774;SDS011;14362;51.902;7.626;2023-12-29T00:39:19;11.68;;;1.75;;
26774;SDS011;14362;51.902;7.626;2023-12-29T00:43:28;7.38;;;1.98;;
26774;SDS011;14362;51.902;7.626;2023-12-29T00:47:29;8.32;;;1.50;;
26774;SDS011;14362;51.902;7.626;2023-12-29T00:51:32;4.72;;;1.55;;
26774;SDS011;14362;51.902;7.626;2023-12-29T00:55:34;6.63;;;1.80;;
26774;SDS011;14362;51.902;7.626;2023-12-29T00:59:36;6.00;;;1.60;;
26774;SDS011;14362;51.902;7.626;2023-12-29T01:03:39;4.93;;;1.50;;
26774;SDS011;14362;51.902;7.626;2023-12-29T01:07:42;6.70;;;1.77;;
26774;SDS011;14362;51.902;7.626;2023-12-29T01:11:43;6.25;;;1.70;;
26774;SDS011;14362;51.902;7.626;2023-12-29T01:15:45;7.20;;;1.90;;
26774;SDS011;14362;51.902;7.626;2023-12-29T01:19:46;6.85;;;2.20;;
26774;SDS011;14362;51.902;7.626;2023-12-29T01:23:49;8.32;;;1.70;;
26774;SDS011;14362;51.902;7.626;2023-12-29T01:27:50;6.68;;;1.88;;
26774;SDS011;14362;51.902;7.626;2023-12-29T01:31:52;4.80;;;1.50;;
26774;SDS011;14362;51.902;7.626;2023-12-29T01:35:53;7.18;;;2.33;;
26774;SDS011;14362;51.902;7.626;2023-12-29T01:39:56;6.30;;;2.33;;
26774;SDS011;14362;51.902;7.626;2023-12-29T01:44:17;7.07;;;1.63;;
26774;SDS011;14362;51.902;7.626;2023-12-29T01:48:21;7.05;;;1.65;;
26774;SDS011;14362;51.902;7.626;2023-12-29T01:52:23;6.32;;;2.00;;
26774;SDS011;14362;51.902;7.626;2023-12-29T01:56:26;7.88;;;1.60;;
26774;SDS011;14362;51.902;7.626;2023-12-29T02:00:28;7.07;;;1.77;;
26774;SDS011;14362;51.902;7.626;2023-12-29T02:04:32;5.47;;;1.58;;
26774;SDS011;14362;51.902;7.626;2023-12-29T02:08:34;4.55;;;1.65;;
26774;SDS011;14362;51.902;7.626;2023-12-29T02:12:37;5.25;;;1.95;;
26774;SDS011;14362;51.902;7.626;2023-12-29T02:16:38;8.05;;;2.05;;
26774;SDS011;14362;51.902;7.626;2023-12-29T02:20:48;6.05;;;1.52;;
26774;SDS011;14362;51.902;7.626;2023-12-29T02:24:51;6.22;;;1.48;;
26774;SDS011;14362;51.902;7.626;2023-12-29T02:28:53;9.90;;;2.00;;
26774;SDS011;14362;51.902;7.626;2023-12-29T02:33:01;5.00;;;1.55;;
26774;SDS011;14362;51.902;7.626;2023-12-29T02:37:06;7.53;;;1.83;;
26774;SDS011;14362;51.902;7.626;2023-12-29T02:41:10;7.38;;;1.73;;
26774;SDS011;14362;51.902;7.626;2023-12-29T02:45:13;7.25;;;2.33;;
26774;SDS011;14362;51.902;7.626;2023-12-29T02:49:14;11.15;;;2.35;;
26774;SDS011;14362;51.902;7.626;2023-12-29T02:53:16;10.40;;;2.45;;
26774;SDS011;14362;51.902;7.626;2023-12-29T02:57:18;7.50;;;1.67;;
26774;SDS011;14362;51.902;7.626;2023-12-29T03:01:20;6.80;;;2.33;;
26774;SDS011;14362;51.902;7.626;2023-12-29T03:05:21;9.63;;;2.08;;
26774;SDS011;14362;51.902;7.626;2023-12-29T03:09:23;7.88;;;2.47;;
26774;SDS011;14362;51.902;7.626;2023-12-29T03:13:25;9.70;;;2.65;;
26774;SDS011;14362;51.902;7.626;2023-12-29T03:17:27;6.47;;;2.30;;
26774;SDS011;14362;51.902;7.626;2023-12-29T03:21:28;5.03;;;2.22;;
26774;SDS011;14362;51.902;7.626;2023-12-29T03:25:30;8.45;;;2.13;;
26774;SDS011;14362;51.902;7.626;2023-12-29T03:29:32;7.18;;;2.72;;
26774;SDS011;14362;51.902;7.626;2023-12-29T03:33:34;4.43;;;2.13;;
26774;SDS011;14362;51.902;7.626;2023-12-29T03:37:35;8.38;;;2.30;;
26774;SDS011;14362;51.902;7.626;2023-12-29T03:41:37;8.60;;;2.67;;
26774;SDS011;14362;51.902;7.626;2023-12-29T03:45:39;6.80;;;2.35;;
26774;SDS011;14362;51.902;7.626;2023-12-29T03:49:41;8.65;;;2.45;;
26774;SDS011;14362;51.902;7.626;2023-12-29T03:53:42;9.98;;;3.25;;
26774;SDS011;14362;51.902;7.626;2023-12-29T03:57:44;9.23;;;2.83;;
26774;SDS011;14362;51.902;7.626;2023-12-29T04:01:46;9.77;;;2.83;;
26774;SDS011;14362;51.902;7.626;2023-12-29T04:05:48;8.85;;;3.10;;
26774;SDS011;14362;51.902;7.626;2023-12-29T04:09:49;8.30;;;3.00;;
26774;SDS011;14362;51.902;7.626;2023-12-29T04:13:50;14.48;;;3.00;;
26774;SDS011;14362;51.902;7.626;2023-12-29T04:17:53;9.13;;;2.85;;
26774;SDS011;14362;51.902;7.626;2023-12-29T04:21:55;6.00;;;2.88;;
26774;SDS011;14362;51.902;7.626;2023-12-29T04:25:56;7.63;;;2.95;;
26774;SDS011;14362;51.902;7.626;2023-12-29T04:29:57;9.80;;;2.83;;
26774;SDS011;14362;51.902;7.626;2023-12-29T04:34:00;13.27;;;4.03;;
26774;SDS011;14362;51.902;7.626;2023-12-29T04:38:02;13.73;;;3.70;;
26774;SDS011;14362;51.902;7.626;2023-12-29T04:42:03;7.13;;;3.17;;
26774;SDS011;14362;51.902;7.626;2023-12-29T04:46:05;12.15;;;3.42;;
26774;SDS011;14362;51.902;7.626;2023-12-29T04:50:08;11.32;;;3.08;;
26774;SDS011;14362;51.902;7.626;2023-12-29T04:54:09;9.95;;;3.35;;
26774;SDS011;14362;51.902;7.626;2023-12-29T04:58:11;7.28;;;3.15;;
26774;SDS011;14362;51.902;7.626;2023-12-29T05:02:12;7.32;;;2.65;;
26774;SDS011;14362;51.902;7.626;2023-12-29T05:06:15;9.30;;;2.42;;
26774;SDS011;14362;51.902;7.626;2023-12-29T05:10:16;8.40;;;2.75;;
26774;SDS011;14362;51.902;7.626;2023-12-29T05:14:18;6.72;;;2.67;;
26774;SDS011;14362;51.902;7.626;2023-12-29T05:18:19;6.72;;;2.15;;
26774;SDS011;14362;51.902;7.626;2023-12-29T05:22:22;11.73;;;2.35;;
26774;SDS011;14362;51.902;7.626;2023-12-29T05:26:23;10.40;;;2.20;;
26774;SDS011;14362;51.902;7.626;2023-12-29T05:30:25;10.82;;;2.53;;
26774;SDS011;14362;51.902;7.626;2023-12-29T05:34:26;9.57;;;2.47;;
26774;SDS011;14362;51.902;7.626;2023-12-29T05:38:29;6.30;;;2.50;;
26774;SDS011;14362;51.902;7.626;2023-12-29T05:42:32;8.30;;;2.40;;
26774;SDS011;14362;51.902;7.626;2023-12-29T05:46:33;6.70;;;2.00;;
26774;SDS011;14362;51.902;7.626;2023-12-29T05:50:35;9.50;;;2.35;;
26774;SDS011;14362;51.902;7.626;2023-12-29T05:54:37;10.68;;;2.55;;
26774;SDS011;14362;51.902;7.626;2023-12-29T05:58:39;7.97;;;2.13;;
26774;SDS011;14362;51.902;7.626;2023-12-29T06:02:41;9.43;;;1.80;;
26774;SDS011;14362;51.902;7.626;2023-12-29T06:06:43;7.70;;;2.42;;
26774;SDS011;14362;51.902;7.626;2023-12-29T06:10:46;10.05;;;2.50;;
26774;SDS011;14362;51.902;7.626;2023-12-29T06:14:48;10.63;;;2.70;;
26774;SDS011;14362;51.902;7.626;2023-12-29T06:18:49;7.55;;;2.03;;
26774;SDS011;14362;51.902;7.626;2023-12-29T06:22:51;9.30;;;2.05;;
26774;SDS011;14362;51.902;7.626;2023-12-29T06:26:54;16.70;;;3.00;;
26774;SDS011;14362;51.902;7.626;2023-12-29T06:30:55;13.00;;;3.28;;
26774;SDS011;14362;51.902;7.626;2023-12-29T06:34:56;9.95;;;1.90;;
26774;SDS011;14362;51.902;7.626;2023-12-29T06:38:58;15.98;;;2.70;;
26774;SDS011;14362;51.902;7.626;2023-12-29T06:43:01;9.80;;;1.95;;
26774;SDS011;14362;51.902;7.626;2023-12-29T06:47:02;8.55;;;2.67;;
26774;SDS011;14362;51.902;7.626;2023-12-29T06:51:05;7.57;;;1.85;;
26774;SDS011;14362;51.902;7.626;2023-12-29T06:55:07;6.25;;;2.60;;
26774;SDS011;14362;51.902;7.626;2023-12-29T06:59:10;5.57;;;1.70;;
26774;SDS011;14362;51.902;7.626;2023-12-29T07:03:12;10.23;;;2.17;;
26774;SDS011;14362;51.902;7.626;2023-12-29T07:07:14;11.05;;;2.47;;
26774;SDS011;14362;51.902;7.626;2023-12-29T07:11:15;8.68;;;2.42;;
26774;SDS011;14362;51.902;7.626;2023-12-29T07:15:19;10.05;;;2.33;;
26774;SDS011;14362;51.902;7.626;2023-12-29T07:19:22;11.02;;;1.92;;
26774;SDS011;14362;51.902;7.626;2023-12-29T07:23:24;11.90;;;2.00;;
26774;SDS011;14362;51.902;7.626;2023-12-29T07:27:25;9.90;;;2.10;;
26774;SDS011;14362;51.902;7.626;2023-12-29T07:31:28;8.73;;;2.60;;
26774;SDS011;14362;51.902;7.626;2023-12-29T07:35:29;8.90;;;2.00;;
26774;SDS011;14362;51.902;7.626;2023-12-29T07:39:31;7.43;;;1.90;;
26774;SDS011;14362;51.902;7.626;2023-12-29T07:43:32;10.63;;;2.65;;
26774;SDS011;14362;51.902;7.626;2023-12-29T07:47:35;7.85;;;2.50;;
26774;SDS011;14362;51.902;7.626;2023-12-29T07:51:38;10.82;;;2.28;;
26774;SDS011;14362;51.902;7.626;2023-12-29T07:55:41;11.38;;;2.20;;
26774;SDS011;14362;51.902;7.626;2023-12-29T07:59:46;10.98;;;2.50;;
26774;SDS011;14362;51.902;7.626;2023-12-29T08:03:49;7.50;;;2.33;;
26774;SDS011;14362;51.902;7.626;2023-12-29T08:07:50;8.85;;;2.28;;
26774;SDS011;14362;51.902;7.626;2023-12-29T08:11:51;9.07;;;2.83;;
26774;SDS011;14362;51.902;7.626;2023-12-29T08:15:53;8.52;;;2.40;;
26774;SDS011;14362;51.902;7.626;2023-12-29T08:19:56;8.32;;;2.65;;
26774;SDS011;14362;51.902;7.626;2023-12-29T08:23:57;10.52;;;3.17;;
26774;SDS011;14362;51.902;7.626;2023-12-29T08:27:58;9.13;;;2.78;;
26774;SDS011;14362;51.902;7.626;2023-12-29T08:32:00;6.18;;;2.35;;
26774;SDS011;14362;51.902;7.626;2023-12-29T08:36:03;11.18;;;2.22;;
26774;SDS011;14362;51.902;7.626;2023-12-29T08:40:07;8.93;;;2.40;;
26774;SDS011;14362;51.902;7.626;2023-12-29T08:44:09;9.05;;;2.92;;
26774;SDS011;14362;51.902;7.626;2023-12-29T08:48:10;8.60;;;3.00;;
26774;SDS011;14362;51.902;7.626;2023-12-29T08:52:13;9.70;;;3.00;;
26774;SDS011;14362;51.902;7.626;2023-12-29T08:56:14;9.27;;;2.63;;
26774;SDS011;14362;51.902;7.626;2023-12-29T09:00:16;10.15;;;2.63;;
26774;SDS011;14362;51.902;7.626;2023-12-29T09:04:17;6.97;;;2.47;;
26774;SDS011;14362;51.902;7.626;2023-12-29T09:08:20;13.20;;;3.10;;
26774;SDS011;14362;51.902;7.626;2023-12-29T09:12:21;7.90;;;2.85;;
26774;SDS011;14362;51.902;7.626;2023-12-29T09:16:23;7.60;;;2.88;;
26774;SDS011;14362;51.902;7.626;2023-12-29T09:20:24;11.50;;;3.03;;
26774;SDS011;14362;51.902;7.626;2023-12-29T09:24:27;10.98;;;2.88;;
26774;SDS011;14362;51.902;7.626;2023-12-29T09:28:30;7.05;;;2.90;;
26774;SDS011;14362;51.902;7.626;2023-12-29T09:32:33;7.35;;;2.70;;
26774;SDS011;14362;51.902;7.626;2023-12-29T09:36:35;12.82;;;3.22;;
26774;SDS011;14362;51.902;7.626;2023-12-29T09:40:38;7.57;;;3.05;;
26774;SDS011;14362;51.902;7.626;2023-12-29T09:44:40;14.35;;;3.90;;
26774;SDS011;14362;51.902;7.626;2023-12-29T09:48:44;7.53;;;3.25;;
26774;SDS011;14362;51.902;7.626;2023-12-29T09:52:47;7.68;;;3.53;;
26774;SDS011;14362;51.902;7.626;2023-12-29T09:56:51;8.05;;;2.97;;
26774;SDS011;14362;51.902;7.626;2023-12-29T10:00:53;7.15;;;3.15;;
26774;SDS011;14362;51.902;7.626;2023-12-29T10:04:55;6.70;;;2.90;;
26774;SDS011;14362;51.902;7.626;2023-12-29T10:08:56;11.00;;;3.20;;
26774;SDS011;14362;51.902;7.626;2023-12-29T10:13:00;5.32;;;2.80;;
26774;SDS011;14362;51.902;7.626;2023-12-29T10:17:03;6.15;;;3.03;;
26774;SDS011;14362;51.902;7.626;2023-12-29T10:21:12;4.80;;;2.80;;
26774;SDS011;14362;51.902;7.626;2023-12-29T10:25:22;5.93;;;2.22;;
26774;SDS011;14362;51.902;7.626;2023-12-29T10:29:27;3.83;;;2.00;;
26774;SDS011;14362;51.902;7.626;2023-12-29T10:33:28;4.33;;;2.07;;
26774;SDS011;14362;51.902;7.626;2023-12-29T10:37:32;4.45;;;1.60;;
26774;SDS011;14362;51.902;7.626;2023-12-29T10:41:33;5.15;;;1.60;;
26774;SDS011;14362;51.902;7.626;2023-12-29T10:45:36;3.33;;;1.67;;
26774;SDS011;14362;51.902;7.626;2023-12-29T10:49:38;4.40;;;1.20;;
26774;SDS011;14362;51.902;7.626;2023-12-29T10:53:40;3.08;;;1.20;;
26774;SDS011;14362;51.902;7.626;2023-12-29T10:57:42;5.95;;;1.65;;
26774;SDS011;14362;51.902;7.626;2023-12-29T11:01:45;5.63;;;1.45;;
26774;SDS011;14362;51.902;7.626;2023-12-29T11:05:49;1.95;;;1.00;;
26774;SDS011;14362;51.902;7.626;2023-12-29T11:09:51;2.83;;;0.73;;
26774;SDS011;14362;51.902;7.626;2023-12-29T11:13:53;2.08;;;0.98;;
26774;SDS011;14362;51.902;7.626;2023-12-29T11:17:56;2.03;;;0.90;;
26774;SDS011;14362;51.902;7.626;2023-12-29T11:21:59;4.15;;;1.17;;
26774;SDS011;14362;51.902;7.626;2023-12-29T11:26:02;0.68;;;0.68;;
26774;SDS011;14362;51.902;7.626;2023-12-29T11:30:05;1.63;;;0.80;;
26774;SDS011;14362;51.902;7.626;2023-12-29T11:34:10;1.45;;;0.88;;
26774;SDS011;14362;51.902;7.626;2023-12-29T11:38:29;2.55;;;1.15;;
26774;SDS011;14362;51.902;7.626;2023-12-29T11:42:40;3.13;;;1.23;;
26774;SDS011;14362;51.902;7.626;2023-12-29T11:46:45;1.30;;;1.00;;
26774;SDS011;14362;51.902;7.626;2023-12-29T11:50:48;1.02;;;0.85;;
26774;SDS011;14362;51.902;7.626;2023-12-29T11:54:49;2.10;;;1.10;;
26774;SDS011;14362;51.902;7.626;2023-12-29T11:58:51;1.95;;;1.02;;
26774;SDS011;14362;51.902;7.626;2023-12-29T12:02:52;1.00;;;0.77;;
26774;SDS011;14362;51.902;7.626;2023-12-29T12:06:55;2.45;;;0.68;;
26774;SDS011;14362;51.902;7.626;2023-12-29T12:10:56;2.25;;;0.80;;
26774;SDS011;14362;51.902;7.626;2023-12-29T12:15:31;1.15;;;0.60;;
26774;SDS011;14362;51.902;7.626;2023-12-29T12:19:33;1.23;;;0.70;;
26774;SDS011;14362;51.902;7.626;2023-12-29T12:23:37;1.25;;;0.95;;
26774;SDS011;14362;51.902;7.626;2023-12-29T12:27:41;1.85;;;0.73;;
26774;SDS011;14362;51.902;7.626;2023-12-29T12:31:51;2.45;;;0.88;;
26774;SDS011;14362;51.902;7.626;2023-12-29T12:35:58;1.05;;;0.70;;
26774;SDS011;14362;51.902;7.626;2023-12-29T12:40:01;4.50;;;1.10;;
26774;SDS011;14362;51.902;7.626;2023-12-29T12:44:06;3.55;;;0.90;;
26774;SDS011;14362;51.902;7.626;2023-12-29T12:48:13;3.90;;;1.17;;
26774;SDS011;14362;51.902;7.626;2023-12-29T12:52:20;2.25;;;0.93;;
26774;SDS011;14362;51.902;7.626;2023-12-29T12:56:23;1.77;;;0.80;;
26774;SDS011;14362;51.902;7.626;2023-12-29T13:00:27;2.30;;;0.93;;
26774;SDS011;14362;51.902;7.626;2023-12-29T13:04:30;4.22;;;1.30;;
26774;SDS011;14362;51.902;7.626;2023-12-29T13:08:31;4.10;;;1.20;;
26774;SDS011;14362;51.902;7.626;2023-12-29T13:12:35;3.40;;;1.15;;
26774;SDS011;14362;51.902;7.626;2023-12-29T13:16:37;9.98;;;1.77;;
26774;SDS011;14362;51.902;7.626;2023-12-29T13:20:45;3.50;;;1.17;;
26774;SDS011;14362;51.902;7.626;2023-12-29T13:24:48;4.70;;;1.65;;
26774;SDS011;14362;51.902;7.626;2023-12-29T13:28:51;5.53;;;1.33;;
26774;SDS011;14362;51.902;7.626;2023-12-29T13:32:52;5.25;;;1.55;;
26774;SDS011;14362;51.902;7.626;2023-12-29T13:36:54;10.10;;;1.75;;
26774;SDS011;14362;51.902;7.626;2023-12-29T13:41:04;3.47;;;1.20;;
26774;SDS011;14362;51.902;7.626;2023-12-29T13:45:11;3.67;;;1.05;;
26774;SDS011;14362;51.902;7.626;2023-12-29T13:49:15;3.75;;;1.38;;
26774;SDS011;14362;51.902;7.626;2023-12-29T13:53:17;4.75;;;1.50;;
26774;SDS011;14362;51.902;7.626;2023-12-29T13:57:28;3.80;;;1.00;;
26774;SDS011;14362;51.902;7.626;2023-12-29T14:01:35;2.45;;;1.10;;
26774;SDS011;14362;51.902;7.626;2023-12-29T14:05:39;3.58;;;1.20;;
26774;SDS011;14362;51.902;7.626;2023-12-29T14:09:47;3.80;;;1.35;;
26774;SDS011;14362;51.902;7.626;2023-12-29T14:13:54;2.28;;;1.38;;
26774;SDS011;14362;51.902;7.626;2023-12-29T14:17:58;2.00;;;0.70;;
26774;SDS011;14362;51.902;7.626;2023-12-29T14:21:59;3.63;;;1.10;;
26774;SDS011;14362;51.902;7.626;2023-12-29T14:26:02;1.88;;;1.00;;
26774;SDS011;14362;51.902;7.626;2023-12-29T14:30:04;2.25;;;1.23;;
26774;SDS011;14362;51.902;7.626;2023-12-29T14:34:20;2.80;;;0.82;;
26774;SDS011;14362;51.902;7.626;2023-12-29T14:38:21;2.58;;;1.05;;
26774;SDS011;14362;51.902;7.626;2023-12-29T14:42:24;1.45;;;0.90;;
26774;SDS011;14362;51.902;7.626;2023-12-29T14:46:26;2.17;;;1.27;;
26774;SDS011;14362;51.902;7.626;2023-12-29T14:50:29;6.07;;;1.23;;
26774;SDS011;14362;51.902;7.626;2023-12-29T14:54:30;2.60;;;1.13;;
26774;SDS011;14362;51.902;7.626;2023-12-29T14:58:32;0.88;;;0.70;;
26774;SDS011;14362;51.902;7.626;2023-12-29T15:02:33;3.22;;;0.95;;
26774;SDS011;14362;51.902;7.626;2023-12-29T15:06:36;3.30;;;0.88;;
26774;SDS011;14362;51.902;7.626;2023-12-29T15:10:37;2.05;;;0.80;;
26774;SDS011;14362;51.902;7.626;2023-12-29T15:14:39;1.40;;;0.90;;
26774;SDS011;14362;51.902;7.626;2023-12-29T15:18:41;0.77;;;0.70;;
26774;SDS011;14362;51.902;7.626;2023-12-29T15:22:44;1.25;;;0.70;;
26774;SDS011;14362;51.902;7.626;2023-12-29T15:26:45;2.47;;;1.10;;
26774;SDS011;14362;51.902;7.626;2023-12-29T15:30:47;1.95;;;1.00;;
26774;SDS011;14362;51.902;7.626;2023-12-29T15:34:49;1.75;;;1.10;;
26774;SDS011;14362;51.902;7.626;2023-12-29T15:38:52;1.63;;;1.10;;
26774;SDS011;14362;51.902;7.626;2023-12-29T15:42:54;4.03;;;1.23;;
26774;SDS011;14362;51.902;7.626;2023-12-29T15:46:56;3.42;;;1.10;;
26774;SDS011;14362;51.902;7.626;2023-12-29T15:50:57;3.58;;;1.10;;
26774;SDS011;14362;51.902;7.626;2023-12-29T15:55:00;2.92;;;1.38;;
26774;SDS011;14362;51.902;7.626;2023-12-29T15:59:02;3.13;;;1.55;;
26774;SDS011;14362;51.902;7.626;2023-12-29T16:03:03;5.35;;;3.13;;
26774;SDS011;14362;51.902;7.626;2023-12-29T16:07:05;4.28;;;2.80;;
26774;SDS011;14362;51.902;7.626;2023-12-29T16:11:07;4.93;;;3.70;;
26774;SDS011;14362;51.902;7.626;2023-12-29T16:15:09;4.45;;;3.20;;
26774;SDS011;14362;51.902;7.626;2023-12-29T16:19:10;3.67;;;3.25;;
26774;SDS011;14362;51.902;7.626;2023-12-29T16:23:12;4.57;;;2.65;;
26774;SDS011;14362;51.902;7.626;2023-12-29T16:27:16;2.90;;;2.20;;
26774;SDS011;14362;51.902;7.626;2023-12-29T16:31:17;3.85;;;1.60;;
26774;SDS011;14362;51.902;7.626;2023-12-29T16:35:19;7.55;;;1.80;;
26774;SDS011;14362;51.902;7.626;2023-12-29T16:39:20;5.05;;;1.70;;
26774;SDS011;14362;51.902;7.626;2023-12-29T16:43:23;4.47;;;2.13;;
26774;SDS011;14362;51.902;7.626;2023-12-29T16:47:24;2.58;;;1.77;;
26774;SDS011;14362;51.902;7.626;2023-12-29T16:51:26;3.58;;;2.40;;
26774;SDS011;14362;51.902;7.626;2023-12-29T16:55:27;3.30;;;2.42;;
26774;SDS011;14362;51.902;7.626;2023-12-29T16:59:30;2.90;;;2.50;;
26774;SDS011;14362;51.902;7.626;2023-12-29T17:03:31;5.43;;;3.00;;
26774;SDS011;14362;51.902;7.626;2023-12-29T17:07:33;5.55;;;4.18;;
26774;SDS011;14362;51.902;7.626;2023-12-29T17:11:34;4.95;;;2.90;;
26774;SDS011;14362;51.902;7.626;2023-12-29T17:15:41;3.05;;;2.42;;
26774;SDS011;14362;51.902;7.626;2023-12-29T17:19:42;5.43;;;2.67;;
26774;SDS011;14362;51.902;7.626;2023-12-29T17:23:44;3.38;;;2.53;;
26774;SDS011;14362;51.902;7.626;2023-12-29T17:27:45;3.80;;;2.53;;
26774;SDS011;14362;51.902;7.626;2023-12-29T17:31:48;5.20;;;2.90;;
26774;SDS011;14362;51.902;7.626;2023-12-29T17:35:50;7.35;;;3.53;;
26774;SDS011;14362;51.902;7.626;2023-12-29T17:39:53;6.95;;;3.97;;
26774;SDS011;14362;51.902;7.626;2023-12-29T17:43:54;7.68;;;4.10;;
26774;SDS011;14362;51.902;7.626;2023-12-29T17:47:57;7.80;;;3.85;;
26774;SDS011;14362;51.902;7.626;2023-12-29T17:52:00;5.22;;;4.07;;
26774;SDS011;14362;51.902;7.626;2023-12-29T17:56:04;4.05;;;3.42;;
26774;SDS011;14362;51.902;7.626;2023-12-29T18:00:07;8.43;;;3.60;;
26774;SDS011;14362;51.902;7.626;2023-12-29T18:04:10;4.95;;;3.58;;
26774;SDS011;14362;51.902;7.626;2023-12-29T18:08:11;6.47;;;3.92;;
26774;SDS011;14362;51.902;7.626;2023-12-29T18:12:18;8.40;;;4.72;;
26774;SDS011;14362;51.902;7.626;2023-12-29T18:16:19;5.95;;;4.25;;
26774;SDS011;14362;51.902;7.626;2023-12-29T18:20:22;5.50;;;4.05;;
26774;SDS011;14362;51.902;7.626;2023-12-29T18:24:23;8.65;;;4.00;;
26774;SDS011;14362;51.902;7.626;2023-12-29T18:28:25;7.00;;;5.43;;
26774;SDS011;14362;51.902;7.626;2023-12-29T18:32:26;8.30;;;3.60;;
26774;SDS011;14362;51.902;7.626;2023-12-29T18:36:29;8.35;;;2.90;;
26774;SDS011;14362;51.902;7.626;2023-12-29T18:40:31;4.30;;;2.75;;
26774;SDS011;14362;51.902;7.626;2023-12-29T18:44:35;6.03;;;2.40;;
26774;SDS011;14362;51.902;7.626;2023-12-29T18:52:40;5.82;;;2.55;;
26774;SDS011;14362;51.902;7.626;2023-12-29T18:56:43;7.68;;;2.70;;
26774;SDS011;14362;51.902;7.626;2023-12-29T19:00:46;4.28;;;1.80;;
26774;SDS011;14362;51.902;7.626;2023-12-29T19:04:48;5.25;;;2.53;;
26774;SDS011;14362;51.902;7.626;2023-12-29T19:08:51;4.90;;;1.88;;
26774;SDS011;14362;51.902;7.626;2023-12-29T19:12:52;2.22;;;1.55;;
26774;SDS011;14362;51.902;7.626;2023-12-29T19:16:54;3.25;;;1.00;;
26774;SDS011;14362;51.902;7.626;2023-12-29T19:20:57;2.28;;;0.68;;
26774;SDS011;14362;51.902;7.626;2023-12-29T19:24:59;3.30;;;0.80;;
26774;SDS011;14362;51.902;7.626;2023-12-29T19:29:01;5.72;;;1.52;;
26774;SDS011;14362;51.902;7.626;2023-12-29T19:33:03;3.88;;;1.52;;
26774;SDS011;14362;51.902;7.626;2023-12-29T19:37:04;1.95;;;1.25;;
26774;SDS011;14362;51.902;7.626;2023-12-29T19:41:07;2.97;;;1.30;;
26774;SDS011;14362;51.902;7.626;2023-12-29T19:45:09;6.03;;;1.00;;
26774;SDS011;14362;51.902;7.626;2023-12-29T19:49:11;2.67;;;1.10;;
26774;SDS011;14362;51.902;7.626;2023-12-29T19:53:12;6.43;;;1.30;;
26774;SDS011;14362;51.902;7.626;2023-12-29T19:57:15;5.75;;;1.30;;
26774;SDS011;14362;51.902;7.626;2023-12-29T20:01:16;1.60;;;0.88;;
26774;SDS011;14362;51.902;7.626;2023-12-29T20:05:18;3.80;;;0.90;;
26774;SDS011;14362;51.902;7.626;2023-12-29T20:09:19;1.00;;;0.85;;
26774;SDS011;14362;51.902;7.626;2023-12-29T20:13:23;4.38;;;0.93;;
26774;SDS011;14362;51.902;7.626;2023-12-29T20:17:25;2.72;;;1.42;;
26774;SDS011;14362;51.902;7.626;2023-12-29T20:21:29;3.63;;;0.90;;
26774;SDS011;14362;51.902;7.626;2023-12-29T20:25:31;3.10;;;0.88;;
26774;SDS011;14362;51.902;7.626;2023-12-29T20:29:33;2.85;;;0.80;;
26774;SDS011;14362;51.902;7.626;2023-12-29T20:33:35;1.30;;;0.98;;
26774;SDS011;14362;51.902;7.626;2023-12-29T20:37:36;4.78;;;1.00;;
26774;SDS011;14362;51.902;7.626;2023-12-29T20:41:38;1.42;;;1.17;;
26774;SDS011;14362;51.902;7.626;2023-12-29T20:45:41;4.38;;;1.30;;
26774;SDS011;14362;51.902;7.626;2023-12-29T20:49:45;3.50;;;1.20;;
26774;SDS011;14362;51.902;7.626;2023-12-29T20:53:47;2.92;;;1.35;;
26774;SDS011;14362;51.902;7.626;2023-12-29T20:57:49;4.05;;;1.42;;
26774;SDS011;14362;51.902;7.626;2023-12-29T21:01:52;3.88;;;1.48;;
26774;SDS011;14362;51.902;7.626;2023-12-29T21:05:53;2.33;;;1.10;;
26774;SDS011;14362;51.902;7.626;2023-12-29T21:09:54;4.72;;;1.50;;
26774;SDS011;14362;51.902;7.626;2023-12-29T21:13:56;6.80;;;1.83;;
26774;SDS011;14362;51.902;7.626;2023-12-29T21:17:59;6.82;;;1.80;;
26774;SDS011;14362;51.902;7.626;2023-12-29T21:22:00;4.75;;;2.08;;
26774;SDS011;14362;51.902;7.626;2023-12-29T21:26:02;3.60;;;1.90;;
26774;SDS011;14362;51.902;7.626;2023-12-29T21:30:04;5.53;;;1.60;;
26774;SDS011;14362;51.902;7.626;2023-12-29T21:34:09;5.17;;;1.67;;
26774;SDS011;14362;51.902;7.626;2023-12-29T21:38:10;5.20;;;1.52;;
26774;SDS011;14362;51.902;7.626;2023-12-29T21:42:12;6.05;;;2.78;;
26774;SDS011;14362;51.902;7.626;2023-12-29T21:46:13;7.78;;;2.45;;
26774;SDS011;14362;51.902;7.626;2023-12-29T21:50:17;6.63;;;1.88;;
26774;SDS011;14362;51.902;7.626;2023-12-29T21:54:18;6.85;;;1.60;;
26774;SDS011;14362;51.902;7.626;2023-12-29T21:58:20;3.80;;;1.13;;
26774;SDS011;14362;51.902;7.626;2023-12-29T22:02:21;5.85;;;1.33;;
26774;SDS011;14362;51.902;7.626;2023-12-29T22:06:24;6.55;;;1.40;;
26774;SDS011;14362;51.902;7.626;2023-12-29T22:10:25;5.13;;;1.48;;
26774;SDS011;14362;51.902;7.626;2023-12-29T22:14:27;4.18;;;1.45;;
26774;SDS011;14362;51.902;7.626;2023-12-29T22:18:28;4.95;;;1.30;;
26774;SDS011;14362;51.902;7.626;2023-12-29T22:22:31;8.40;;;1.83;;
26774;SDS011;14362;51.902;7.626;2023-12-29T22:26:32;4.32;;;0.80;;
26774;SDS011;14362;51.902;7.626;2023-12-29T22:30:35;2.63;;;0.80;;
26774;SDS011;14362;51.902;7.626;2023-12-29T22:34:37;3.22;;;0.80;;
26774;SDS011;14362;51.902;7.626;2023-12-29T22:38:43;3.05;;;0.90;;
26774;SDS011;14362;51.902;7.626;2023-12-29T22:42:45;1.88;;;0.85;;
26774;SDS011;14362;51.902;7.626;2023-12-29T22:46:48;2.47;;;0.90;;
26774;SDS011;14362;51.902;7.626;2023-12-29T22:50:50;7.07;;;1.10;;
26774;SDS011;14362;51.902;7.626;2023-12-29T22:54:52;2.50;;;2.05;;
26774;SDS011;14362;51.902;7.626;2023-12-29T22:58:54;1.48;;;0.88;;
26774;SDS011;14362;51.902;7.626;2023-12-29T23:02:55;3.83;;;1.15;;
26774;SDS011;14362;51.902;7.626;2023-12-29T23:06:56;6.53;;;1.83;;
26774;SDS011;14362;51.902;7.626;2023-12-29T23:10:59;1.38;;;0.90;;
26774;SDS011;14362;51.902;7.626;2023-12-29T23:15:01;2.00;;;1.10;;
26774;SDS011;14362;51.902;7.626;2023-12-29T23:19:02;3.63;;;0.93;;
26774;SDS011;14362;51.902;7.626;2023-12-29T23:23:03;2.83;;;0.70;;
26774;SDS011;14362;51.902;7.626;2023-12-29T23:27:06;0.88;;;0.70;;
26774;SDS011;14362;51.902;7.626;2023-12-29T23:31:08;1.23;;;0.70;;
26774;SDS011;14362;51.902;7.626;2023-12-29T23:35:09;1.27;;;0.57;;
26774;SDS011;14362;51.902;7.626;2023-12-29T23:39:11;1.20;;;0.75;;
26774;SDS011;14362;51.902;7.626;2023-12-29T23:43:14;2.40;;;0.70;;
26774;SDS011;14362;51.902;7.626;2023-12-29T23:47:15;1.38;;;0.70;;
26774;SDS011;14362;51.902;7.626;2023-12-29T23:51:17;1.67;;;0.80;;
26774;SDS011;14362;51.902;7.626;2023-12-29T23:55:18;0.75;;;0.70;;
26774;SDS011;14362;51.902;7.626;2023-12-29T23:59:24;1.43;;;0.60;;
